Terminal Aerodrome Forecast
Issued by NWS Jacksonville, FL

Home | Current Version | Previous Version | Text Only | Print | Product List | Glossary On
Versions: 1 2 3 4 5 6 7 8 9 10 11 12 13 14
406
FTUS42 KJAX 270536
TAFSSI
TAF
KSSI 270536Z 2706/2806 23006KT P6SM SCT250
     FM270900 24005KT P6SM SCT025 BKN050
      TEMPO 2709/2713 BKN025
     FM271600 23009KT P6SM FEW050 SCT250
     FM272000 18009KT P6SM SCT250
     FM280200 26004KT P6SM SCT250=

USA.gov is the U.S. government's official web portal to all federal, state and local government web resources and services.